Time;durP1;ratioP1;P1;durP2;ratioP2;P2;SDS_P1;SDS_P2;PMS_P1;PMS_P2;Temp;Humidity;BMP_temperature;BMP_pressure;BME280_temperature;BME280_humidity;BME280_pressure;Samples;Min_cycle;Max_cycle;Signal;HPM_P1;HPM_P2
2023/05/12 00:02:25;;;;;;;12.00;5.20;;;;;;;10.35;53.40;100370.56;134068;1298;23072;-69
2023/05/12 00:05:28;;;;;;;;;;;;;;;10.29;53.63;100372.09;133897;1302;22514;-69
2023/05/12 00:08:30;;;;;;;8.20;5.30;;;;;;;10.22;53.67;100373.15;134184;1303;22411;-68
2023/05/12 00:11:31;;;;;;;11.00;5.80;;;;;;;10.14;53.95;100370.77;134060;1298;22506;-68
2023/05/12 00:14:43;;;;;;;;;;;;;;;;;;;;;
2023/05/12 00:17:46;;;;;;;10.00;5.90;;;;;;;10.02;54.25;100372.02;134209;1301;22411;-68
2023/05/12 00:20:58;;;;;;;;;;;;;;;;;;;;;
2023/05/12 00:23:59;;;;;;;9.60;5.50;;;;;;;9.90;54.47;100368.80;134210;1301;23163;-69
2023/05/12 00:27:00;;;;;;;10.00;5.00;;;;;;;9.82;54.39;100362.36;134183;1300;23303;-69
2023/05/12 00:30:16;;;;;;;10.10;5.50;;;;;;;9.78;54.80;100362.95;134204;1299;22525;-69
2023/05/12 00:33:17;;;;;;;11.00;5.60;;;;;;;9.73;54.73;100361.34;134077;1298;24764;-68
2023/05/12 00:36:23;;;;;;;9.10;5.10;;;;;;;9.69;54.82;100360.88;134216;1298;22187;-68
2023/05/12 00:39:31;;;;;;;11.10;5.80;;;;;;;9.65;55.00;100358.06;134202;1305;22428;-68
2023/05/12 00:42:37;;;;;;;9.80;5.70;;;;;;;9.62;55.04;100360.80;134205;1299;23025;-68
2023/05/12 00:45:52;;;;;;;;;;;;;;;;;;;;;
2023/05/12 00:49:14;;;;;;;12.90;6.20;;;;;;;9.61;55.11;100367.61;134055;1301;22178;-69
2023/05/12 00:52:14;;;;;;;11.60;5.80;;;;;;;9.60;55.01;100368.66;134101;1298;23120;-68
2023/05/12 00:55:15;;;;;;;;;;;;;;;9.59;55.21;100375.63;134083;1298;23151;-69
2023/05/12 00:58:19;;;;;;;12.20;5.50;;;;;;;9.57;55.24;100377.12;134085;1298;22214;-68
2023/05/12 01:01:23;;;;;;;12.40;5.70;;;;;;;9.55;55.07;100377.80;134049;1305;22373;-68
2023/05/12 01:04:28;;;;;;;7.50;5.30;;;;;;;9.54;55.18;100377.09;134038;1301;23040;-69
2023/05/12 01:07:44;;;;;;;10.50;5.90;;;;;;;9.50;55.12;100381.33;134087;1305;22354;-68
2023/05/12 01:10:58;;;;;;;10.30;5.30;;;;;;;9.43;55.31;100383.89;134095;1297;22370;-68
2023/05/12 01:14:05;;;;;;;7.70;5.70;;;;;;;9.35;55.35;100382.80;133962;1297;23128;-68
2023/05/12 01:17:25;;;;;;;9.00;5.20;;;;;;;9.30;55.45;100382.03;134088;1298;22402;-68
2023/05/12 01:20:35;;;;;;;8.30;5.10;;;;;;;9.27;55.65;100384.54;134054;1301;22365;-69
2023/05/12 01:23:51;;;;;;;;;;;;;;;;;;;;;
2023/05/12 01:27:07;;;;;;;8.90;4.40;;;;;;;9.17;55.74;100390.38;134076;1299;22238;-68
2023/05/12 01:30:11;;;;;;;7.30;4.90;;;;;;;9.09;55.83;100387.85;134186;1297;22351;-68
2023/05/12 01:33:12;;;;;;;8.40;5.60;;;;;;;8.99;55.97;100391.82;134183;1298;22351;-69
2023/05/12 01:36:16;;;;;;;12.20;5.30;;;;;;;8.93;56.09;100394.33;134069;1298;22315;-69
2023/05/12 01:39:17;;;;;;;9.30;5.70;;;;;;;8.88;56.19;100394.25;134043;1301;22421;-70
2023/05/12 01:42:47;;;;;;;10.10;5.20;;;;;;;8.87;56.29;100396.65;134180;1298;22252;-68
2023/05/12 01:45:49;;;;;;;12.40;5.40;;;;;;;8.84;56.39;100393.84;133943;1299;22407;-71
2023/05/12 01:48:55;;;;;;;8.30;5.00;;;;;;;8.81;56.61;100396.20;134050;1298;22453;-70
2023/05/12 01:51:56;;;;;;;10.00;5.20;;;;;;;8.75;56.67;100395.17;134247;1297;22427;-68
2023/05/12 01:55:06;;;;;;;9.20;5.70;;;;;;;8.70;56.76;100398.37;134060;1305;22354;-68
2023/05/12 01:58:17;;;;;;;7.30;4.90;;;;;;;8.64;56.87;100402.27;134118;1298;23098;-68
2023/05/12 02:01:27;;;;;;;11.40;6.20;;;;;;;8.60;56.97;100401.27;134087;1299;23026;-68
2023/05/12 02:04:37;;;;;;;8.60;5.60;;;;;;;8.56;57.13;100401.79;134099;1298;22391;-72
2023/05/12 02:07:41;;;;;;;11.00;5.80;;;;;;;8.51;57.23;100400.64;134168;1297;22530;-69
2023/05/12 02:10:46;;;;;;;9.00;5.30;;;;;;;8.45;57.37;100406.15;134227;1298;23242;-68
2023/05/12 02:14:06;;;;;;;9.20;6.30;;;;;;;8.36;57.53;100402.23;134048;1298;22405;-69
2023/05/12 02:17:53;;;;;;;10.50;5.80;;;;;;;8.22;57.70;100399.66;134188;1298;22391;-68
2023/05/12 02:21:03;;;;;;;13.30;6.30;;;;;;;8.14;57.96;100403.15;134202;1298;22445;-72
2023/05/12 02:24:05;;;;;;;14.20;6.50;;;;;;;8.07;58.16;100404.05;134105;1298;22427;-68
2023/05/12 02:27:09;;;;;;;7.60;5.60;;;;;;;7.97;58.35;100405.00;134230;1297;23297;-68
2023/05/12 02:30:11;;;;;;;7.90;5.60;;;;;;;7.86;58.70;100402.86;133914;1301;22188;-69
2023/05/12 02:33:11;;;;;;;13.90;6.20;;;;;;;7.80;58.81;100400.76;134088;1298;22463;-72
2023/05/12 02:36:12;;;;;;;9.70;5.80;;;;;;;7.77;59.13;100402.46;134072;1298;22375;-69
2023/05/12 02:39:13;;;;;;;12.90;6.20;;;;;;;7.72;59.23;100400.89;134225;1298;22406;-68
2023/05/12 02:42:15;;;;;;;9.90;5.80;;;;;;;7.66;59.35;100404.04;134077;1298;22182;-69
2023/05/12 02:45:36;;;;;;;12.70;6.50;;;;;;;7.59;59.49;100404.34;134191;1298;22143;-68
2023/05/12 02:48:37;;;;;;;12.70;6.50;;;;;;;7.50;59.74;100409.38;134183;1301;22394;-68
2023/05/12 02:51:48;;;;;;;;;;;;;;;;;;;;;
2023/05/12 02:54:55;;;;;;;11.70;6.20;;;;;;;7.39;60.09;100412.27;134209;1297;22453;-68
2023/05/12 02:57:56;;;;;;;9.20;6.10;;;;;;;7.34;60.40;100409.80;134230;1297;23102;-69
2023/05/12 03:00:59;;;;;;;12.50;6.10;;;;;;;7.30;60.50;100407.84;134071;1305;22348;-68
2023/05/12 03:04:13;;;;;;;;;;;;;;;;;;;;;
2023/05/12 03:07:16;;;;;;;9.80;6.60;;;;;;;7.25;60.72;100416.52;134220;1297;22387;-69
2023/05/12 03:10:25;;;;;;;10.10;6.10;;;;;;;7.26;60.89;100414.85;134124;1297;23034;-69
2023/05/12 03:13:27;;;;;;;13.20;6.90;;;;;;;7.28;61.13;100420.55;134191;1297;22345;-69
2023/05/12 03:16:28;;;;;;;;;;;;;;;7.29;61.18;100421.98;134105;1298;22451;-72
2023/05/12 03:19:31;;;;;;;11.90;6.70;;;;;;;7.30;61.42;100423.64;134210;1301;23112;-68
2023/05/12 03:22:52;;;;;;;;;;;;;;;7.33;61.35;100419.16;134118;1304;22547;-69
2023/05/12 03:26:13;;;;;;;;;;;;;;;7.37;61.31;100418.64;134096;1299;23119;-68
2023/05/12 03:29:20;;;;;;;10.90;6.70;;;;;;;7.41;61.48;100422.27;134063;1301;23049;-68
2023/05/12 03:32:21;;;;;;;10.30;6.30;;;;;;;7.46;61.53;100424.30;134203;1297;22382;-68
2023/05/12 03:35:25;;;;;;;12.40;6.30;;;;;;;7.53;61.47;100428.09;134216;1297;22354;-69
2023/05/12 03:38:26;;;;;;;;;;;;;;;7.64;61.71;100428.66;133949;1298;22496;-69
2023/05/12 03:41:34;;;;;;;10.50;5.80;;;;;;;7.82;61.65;100427.95;134189;1297;22159;-68
2023/05/12 03:44:35;;;;;;;13.40;6.60;;;;;;;8.07;61.56;100428.56;134178;1297;22463;-68
2023/05/12 03:47:39;;;;;;;;;;;;;;;8.36;61.34;100426.59;134070;1301;22462;-68
2023/05/12 03:50:40;;;;;;;8.70;6.00;;;;;;;8.67;61.16;100424.02;134186;1298;23034;-68
2023/05/12 03:53:44;;;;;;;8.30;5.50;;;;;;;9.00;60.99;100430.36;133778;1298;23578;-69
2023/05/12 03:56:57;;;;;;;10.80;5.90;;;;;;;9.36;60.64;100428.75;134193;1297;23119;-68
2023/05/12 04:00:02;;;;;;;10.70;6.20;;;;;;;9.77;60.44;100425.55;134203;1298;22476;-68
2023/05/12 04:03:33;;;;;;;;;;;;;;;;;;;;;
2023/05/12 04:06:44;;;;;;;7.60;5.40;;;;;;;10.53;59.27;100428.54;134074;1297;23237;-68
2023/05/12 04:09:45;;;;;;;9.60;5.30;;;;;;;10.85;59.21;100431.48;134069;1297;22385;-69
2023/05/12 04:12:46;;;;;;;8.50;5.60;;;;;;;11.24;58.79;100433.19;134065;1298;22434;-75
2023/05/12 04:15:48;;;;;;;9.50;5.90;;;;;;;11.64;58.25;100432.28;134202;1298;23009;-69
2023/05/12 04:19:08;;;;;;;9.00;5.00;;;;;;;12.05;57.61;100436.22;134148;1297;22153;-72
2023/05/12 04:22:09;;;;;;;;;;;;;;;12.30;57.24;100437.94;134219;1297;22502;-69
2023/05/12 04:25:10;;;;;;;12.30;5.60;;;;;;;12.51;56.49;100438.94;134198;1298;22283;-70
2023/05/12 04:28:23;;;;;;;12.10;5.80;;;;;;;12.74;56.01;100440.62;134057;1299;22201;-70
2023/05/12 04:31:27;;;;;;;11.00;5.40;;;;;;;12.88;55.19;100443.59;133991;1297;23029;-69
2023/05/12 04:34:28;;;;;;;11.10;6.40;;;;;;;13.03;54.64;100443.02;134030;1298;22433;-70
2023/05/12 04:37:30;;;;;;;10.80;5.10;;;;;;;13.14;54.37;100443.95;133800;1301;22354;-69
2023/05/12 04:40:31;;;;;;;7.70;5.20;;;;;;;13.24;53.92;100445.45;134249;1298;23040;-71
2023/05/12 04:43:32;;;;;;;7.90;5.20;;;;;;;13.35;53.37;100448.95;134059;1301;22237;-71
2023/05/12 04:46:42;;;;;;;10.90;5.30;;;;;;;13.37;52.68;100447.09;134073;1301;24137;-70
2023/05/12 04:49:43;;;;;;;7.60;5.10;;;;;;;13.42;52.65;100451.16;134086;1298;22228;-70
2023/05/12 04:53:04;;;;;;;10.20;5.80;;;;;;;13.50;52.34;100453.05;134202;1297;23245;-69
2023/05/12 04:56:07;;;;;;;10.80;5.50;;;;;;;13.63;52.32;100453.52;134156;1297;22358;-69
2023/05/12 04:59:14;;;;;;;8.00;4.60;;;;;;;13.86;52.03;100452.08;134065;1298;22457;-71
2023/05/12 05:02:15;;;;;;;9.60;5.40;;;;;;;14.04;51.46;100454.76;133915;1298;23226;-70
2023/05/12 05:05:16;;;;;;;10.90;5.00;;;;;;;14.14;50.85;100459.51;134195;1298;23222;-69
2023/05/12 05:08:18;;;;;;;9.40;4.90;;;;;;;14.22;50.99;100464.80;134062;1297;22359;-74
2023/05/12 05:11:26;;;;;;;8.30;4.80;;;;;;;14.47;51.15;100467.32;134045;1297;23432;-69
2023/05/12 05:14:28;;;;;;;8.30;4.80;;;;;;;14.79;50.56;100468.15;133958;1298;22329;-69
2023/05/12 05:17:32;;;;;;;8.80;4.70;;;;;;;14.85;49.98;100461.20;133978;1297;22469;-69
2023/05/12 05:20:56;;;;;;;8.60;5.30;;;;;;;15.14;50.19;100461.05;134080;1298;23490;-69
2023/05/12 05:24:00;;;;;;;7.70;4.70;;;;;;;15.42;49.38;100462.55;133959;1305;22426;-69
2023/05/12 05:27:07;;;;;;;11.90;5.70;;;;;;;15.44;48.34;100468.05;134067;1299;22462;-69
2023/05/12 05:30:19;;;;;;;8.10;5.00;;;;;;;15.32;47.66;100469.35;134178;1297;22212;-71
2023/05/12 05:33:42;;;;;;;6.00;4.90;;;;;;;15.00;47.07;100468.78;134055;1297;22434;-70
2023/05/12 05:37:16;;;;;;;8.40;5.10;;;;;;;14.86;47.74;100467.26;134081;1285;22402;-70
2023/05/12 05:41:24;;;;;;;7.00;4.40;;;;;;;15.07;48.01;100468.63;134172;1298;23147;-69
2023/05/12 05:44:35;;;;;;;9.30;5.50;;;;;;;15.19;47.43;100467.81;134177;1297;22381;-69
2023/05/12 05:47:48;;;;;;;8.80;5.40;;;;;;;15.43;47.25;100466.69;134206;1297;23155;-70
2023/05/12 05:51:22;;;;;;;;;;;;;;;;;;;;;
2023/05/12 05:54:48;;;;;;;7.30;5.20;;;;;;;15.83;46.59;100473.68;134175;1297;22412;-70
2023/05/12 05:57:51;;;;;;;7.20;4.80;;;;;;;15.88;46.60;100476.27;134093;1297;22249;-69
2023/05/12 06:01:27;;;;;;;7.00;4.80;;;;;;;16.07;46.56;100480.45;133953;1301;22378;-70
2023/05/12 06:04:30;;;;;;;15.50;5.00;;;;;;;16.36;46.73;100477.66;134096;1297;22253;-70
2023/05/12 06:07:32;;;;;;;9.40;4.80;;;;;;;16.64;46.22;100479.86;134103;1298;23141;-70
2023/05/12 06:10:49;;;;;;;9.30;4.80;;;;;;;16.71;45.93;100481.78;134210;1298;22316;-69
2023/05/12 06:14:13;;;;;;;8.10;4.40;;;;;;;16.66;45.57;100486.38;134053;1298;22505;-72
2023/05/12 06:17:27;;;;;;;6.90;5.00;;;;;;;16.63;45.40;100488.63;134049;1298;22157;-69
2023/05/12 06:20:28;;;;;;;8.60;5.00;;;;;;;16.60;44.74;100483.20;134095;1297;22498;-69
2023/05/12 06:23:32;;;;;;;9.80;4.40;;;;;;;16.35;44.73;100480.58;134234;1297;22194;-71
2023/05/12 06:26:44;;;;;;;;;;;;;;;;;;;;;
2023/05/12 06:30:27;;;;;;;10.60;4.90;;;;;;;15.94;45.29;100482.73;134243;1297;22938;-70
2023/05/12 06:33:33;;;;;;;9.30;5.10;;;;;;;16.15;45.59;100483.73;133971;1301;22922;-70
2023/05/12 06:36:51;;;;;;;8.10;4.70;;;;;;;16.23;45.05;100485.65;134098;1298;22366;-69
2023/05/12 06:40:32;;;;;;;10.00;5.20;;;;;;;16.33;45.56;100489.18;134165;1297;22184;-71
2023/05/12 06:43:36;;;;;;;11.00;5.10;;;;;;;16.54;45.71;100488.45;134046;1297;22283;-70
2023/05/12 06:46:40;;;;;;;11.30;4.70;;;;;;;16.83;45.56;100485.30;134165;1298;22368;-70
2023/05/12 06:49:51;;;;;;;7.10;4.80;;;;;;;17.12;45.34;100487.20;134249;1297;22368;-69
2023/05/12 06:53:05;;;;;;;8.10;4.90;;;;;;;17.33;44.81;100488.88;134223;1298;23068;-69
2023/05/12 06:56:28;;;;;;;6.40;4.40;;;;;;;17.45;44.48;100489.16;134229;1297;22429;-71
2023/05/12 06:59:32;;;;;;;8.00;4.90;;;;;;;17.56;44.71;100482.46;134213;1301;22422;-70
2023/05/12 07:02:41;;;;;;;5.60;4.30;;;;;;;17.73;44.39;100483.60;134084;1298;22439;-69
2023/05/12 07:06:21;;;;;;;7.60;4.60;;;;;;;17.88;44.11;100478.60;134044;1297;22613;-70
2023/05/12 07:09:34;;;;;;;7.10;4.60;;;;;;;17.89;44.06;100472.74;134259;1297;22381;-69
2023/05/12 07:12:43;;;;;;;7.60;4.00;;;;;;;17.83;43.25;100475.17;134095;1299;23122;-69
2023/05/12 07:15:49;;;;;;;7.90;4.80;;;;;;;17.72;43.40;100473.89;134221;1297;22241;-70
2023/05/12 07:19:01;;;;;;;7.60;3.80;;;;;;;17.67;43.49;100469.48;134193;1297;23130;-69
2023/05/12 07:22:36;;;;;;;;;;;;;;;;;;;;;
2023/05/12 07:25:54;;;;;;;8.40;4.10;;;;;;;17.87;43.44;100474.60;134175;1297;22230;-70
2023/05/12 07:29:22;;;;;;;6.90;4.80;;;;;;;17.93;43.17;100474.84;134196;1297;22397;-70
2023/05/12 07:32:26;;;;;;;13.20;4.40;;;;;;;17.97;43.25;100472.95;134185;1298;22387;-73
2023/05/12 07:35:46;;;;;;;;;;;;;;;;;;;;;
2023/05/12 07:39:22;;;;;;;6.40;4.20;;;;;;;18.11;42.94;100471.75;134089;1298;22529;-70
2023/05/12 07:42:38;;;;;;;6.00;4.10;;;;;;;18.16;42.42;100477.65;134209;1299;22265;-70
2023/05/12 07:45:54;;;;;;;9.70;4.50;;;;;;;18.21;42.89;100470.27;134103;1296;22297;-70
2023/05/12 07:53:09;;;;;;;;;;;;;;;;;;;;;
2023/05/12 07:56:38;;;;;;;;;;;;;;;;;;;;;
2023/05/12 07:59:48;;;;;;;6.20;3.70;;;;;;;18.92;42.96;100474.12;134211;1297;25455;-70
2023/05/12 08:03:22;;;;;;;6.80;4.00;;;;;;;19.02;42.16;100475.77;134209;1297;22547;-69
2023/05/12 08:08:00;;;;;;;7.20;4.40;;;;;;;19.06;42.40;100476.67;134172;1297;23113;-71
2023/05/12 08:10:47;;;;;;;9.80;4.30;;;;;;;19.19;42.26;100477.02;133994;1297;22376;-69
2023/05/12 08:13:57;;;;;;;7.80;4.20;;;;;;;19.49;42.63;100469.09;134230;1297;22389;-70
2023/05/12 08:17:10;;;;;;;8.90;4.10;;;;;;;19.78;42.13;100476.06;133808;1294;22423;-74
2023/05/12 08:20:33;;;;;;;8.40;4.40;;;;;;;19.87;41.71;100472.85;134180;1297;23314;-70
2023/05/12 08:24:17;;;;;;;5.40;4.30;;;;;;;19.86;41.00;100470.91;134062;1301;22411;-70
2023/05/12 08:27:47;;;;;;;6.10;3.80;;;;;;;19.95;41.21;100472.91;134230;1297;23155;-69
2023/05/12 08:30:54;;;;;;;7.30;3.80;;;;;;;19.97;41.33;100474.05;134224;1298;22374;-70
2023/05/12 08:34:21;;;;;;;10.10;4.10;;;;;;;19.98;41.59;100472.64;134222;1297;23080;-68
2023/05/12 08:38:06;;;;;;;7.10;4.40;;;;;;;20.10;41.33;100474.20;134081;1298;23064;-69
2023/05/12 08:42:09;;;;;;;;;;;;;;;;;;;;;
2023/05/12 08:45:42;;;;;;;;;;;;;;;;;;;;;
2023/05/12 08:49:14;;;;;;;;;;;;;;;;;;;;;
2023/05/12 08:52:57;;;;;;;7.70;4.60;;;;;;;20.04;40.82;100480.05;134098;1298;22428;-69
2023/05/12 08:56:24;;;;;;;;;;;;;;;;;;;;;
2023/05/12 09:00:10;;;;;;;;;;;;;;;;;;;;;
2023/05/12 09:03:16;;;;;;;8.20;3.90;;;;;;;20.45;41.26;100477.01;134085;1297;22226;-70
2023/05/12 09:06:48;;;;;;;8.80;4.20;;;;;;;20.60;41.22;100481.58;134189;1296;22372;-70
2023/05/12 09:10:06;;;;;;;7.30;3.60;;;;;;;20.69;41.25;100481.27;134065;1298;22265;-71
2023/05/12 09:21:49;;;;;;;;;;;;;;;;;;;;;
2023/05/12 09:29:21;;;;;;;;;;;;;;;;;;;;;
2023/05/12 09:32:49;;;;;;;;;;;;;;;;;;;;;
2023/05/12 09:36:03;;;;;;;4.90;3.50;;;;;;;20.92;39.74;100466.04;133947;1301;23280;-71
2023/05/12 09:39:55;;;;;;;7.80;3.50;;;;;;;20.85;39.63;100469.80;134219;1297;22465;-70
2023/05/12 09:43:37;;;;;;;5.10;3.30;;;;;;;20.74;39.39;100470.55;134211;1297;22322;-71
2023/05/12 09:46:41;;;;;;;8.90;3.50;;;;;;;20.69;38.74;100468.70;134163;1298;25437;-71
2023/05/12 09:50:04;;;;;;;;;;;;;;;;;;;;;
2023/05/12 09:57:30;;;;;;;;;;;;;;;;;;;;;
2023/05/12 10:00:34;;;;;;;7.40;3.60;;;;;;;21.04;39.14;100465.16;133916;1298;22513;-70
2023/05/12 10:03:39;;;;;;;7.40;3.10;;;;;;;21.14;38.88;100469.11;134177;1297;23137;-70
2023/05/12 10:07:23;;;;;;;;;;;;;;;;;;;;;
2023/05/12 10:11:04;;;;;;;7.50;4.20;;;;;;;21.08;38.19;100465.54;134160;1297;23177;-71
2023/05/12 10:14:39;;;;;;;5.40;3.50;;;;;;;21.13;38.39;100459.90;133927;1297;23038;-70
2023/05/12 10:18:14;;;;;;;;;;;;;;;;;;;;;
2023/05/12 10:21:59;;;;;;;6.10;3.20;;;;;;;21.39;38.18;100457.08;134210;1298;22454;-69
2023/05/12 10:25:37;;;;;;;;;;;;;;;;;;;;;
2023/05/12 10:29:17;;;;;;;;;;;;;;;;;;;;;
2023/05/12 10:33:07;;;;;;;;;;;;;;;;;;;;;
2023/05/12 10:36:21;;;;;;;4.30;2.80;;;;;;;21.26;37.61;100445.69;134170;1301;22966;-70
2023/05/12 10:39:31;;;;;;;5.40;2.80;;;;;;;21.29;37.98;100439.46;134089;1297;22393;-76
2023/05/12 10:42:50;;;;;;;5.30;2.90;;;;;;;21.43;37.42;100446.23;134165;1298;22165;-70
2023/05/12 10:46:28;;;;;;;;;;;;;;;;;;;;;
2023/05/12 10:49:58;;;;;;;5.10;3.00;;;;;;;21.57;37.55;100444.58;134109;1297;22485;-71
2023/05/12 10:53:49;;;;;;;;;;;;;;;;;;;;;
2023/05/12 10:57:18;;;;;;;7.40;3.20;;;;;;;21.75;37.23;100438.43;134214;1297;23044;-71
2023/05/12 11:00:29;;;;;;;3.20;2.50;;;;;;;21.73;36.51;100435.84;133929;1298;23338;-69
2023/05/12 11:04:18;;;;;;;7.30;2.40;;;;;;;21.73;35.66;100430.36;134170;1298;22376;-71
2023/05/12 11:07:52;;;;;;;8.10;3.20;;;;;;;21.84;35.91;100425.27;134194;1305;22991;-70
2023/05/12 11:11:32;;;;;;;7.70;2.80;;;;;;;21.83;36.02;100425.04;134192;1298;22402;-71
2023/05/12 11:18:55;;;;;;;;;;;;;;;;;;;;;
2023/05/12 11:22:38;;;;;;;;;;;;;;;;;;;;;
2023/05/12 11:26:32;;;;;;;;;;;;;;;;;;;;;
2023/05/12 11:30:11;;;;;;;;;;;;;;;;;;;;;
2023/05/12 11:34:29;;;;;;;3.90;2.30;;;;;;;21.29;33.47;100431.30;134080;1298;22464;-70
2023/05/12 11:38:27;;;;;;;;;;;;;;;;;;;;;
2023/05/12 11:41:37;;;;;;;4.00;2.50;;;;;;;21.11;33.24;100425.31;134117;1297;22428;-68
2023/05/12 11:45:01;;;;;;;;;;;;;;;;;;;;;
2023/05/12 11:48:12;;;;;;;6.60;2.80;;;;;;;21.04;34.11;100433.86;134030;1287;22416;-68
2023/05/12 11:51:26;;;;;;;6.30;2.60;;;;;;;21.05;34.01;100434.81;134067;1297;22539;-68
2023/05/12 11:54:29;;;;;;;4.50;2.60;;;;;;;21.24;34.62;100424.10;134011;1297;22409;-69
2023/05/12 11:57:41;;;;;;;2.90;2.40;;;;;;;21.51;33.39;100427.58;134025;1299;22447;-70
2023/05/12 12:00:48;;;;;;;6.50;2.10;;;;;;;21.53;32.19;100426.55;134150;1297;22165;-68
2023/05/12 12:04:15;;;;;;;3.40;2.00;;;;;;;21.61;32.44;100431.38;134193;1298;22189;-69
2023/05/12 12:07:45;;;;;;;4.50;2.20;;;;;;;21.64;32.21;100431.15;134190;1297;22366;-68
2023/05/12 12:11:03;;;;;;;4.10;2.30;;;;;;;21.68;31.57;100428.40;134180;1293;23190;-75
2023/05/12 12:14:50;;;;;;;;;;;;;;;;;;;;;
2023/05/12 12:18:51;;;;;;;;;;;;;;;;;;;;;
2023/05/12 12:29:36;;;;;;;2.00;1.90;;;;;;;21.68;29.73;100432.39;134159;1297;22433;-70
2023/05/12 12:33:18;;;;;;;2.80;1.80;;;;;;;21.40;29.17;100438.20;134159;1298;23041;-68
2023/05/12 12:36:36;;;;;;;;;;;;;;;;;;;;;
2023/05/12 12:39:51;;;;;;;2.60;2.20;;;;;;;21.57;29.59;100434.15;134189;1301;23205;-69
2023/05/12 12:43:00;;;;;;;3.60;2.00;;;;;;;21.66;29.98;100429.09;134163;1298;22156;-70
2023/05/12 12:46:38;;;;;;;;;;;;;;;;;;;;;
2023/05/12 12:49:39;;;;;;;2.30;2.00;;;;;;;21.77;30.37;100418.81;134196;1297;22161;-69
2023/05/12 12:52:55;;;;;;;3.10;2.20;;;;;;;21.71;30.35;100420.51;134206;1298;22412;-67
2023/05/12 12:56:21;;;;;;;5.50;2.50;;;;;;;21.44;29.85;100421.95;134210;1304;22441;-67
2023/05/12 12:59:52;;;;;;;;;;;;;;;;;;;;;
2023/05/12 13:03:25;;;;;;;4.50;2.40;;;;;;;20.74;29.96;100423.48;134130;1298;22400;-68
2023/05/12 13:06:45;;;;;;;4.40;1.90;;;;;;;20.91;30.70;100420.84;134202;1298;22899;-68
2023/05/12 13:10:13;;;;;;;;;;;;;;;;;;;;;
2023/05/12 13:18:38;;;;;;;4.10;2.20;;;;;;;20.58;29.72;100425.98;134183;1298;22465;-68
2023/05/12 13:21:48;;;;;;;2.10;1.90;;;;;;;20.68;30.45;100421.27;133832;1297;22440;-68
2023/05/12 13:25:38;;;;;;;;;;;;;;;;;;;;;
2023/05/12 13:29:09;;;;;;;;;;;;;;;;;;;;;
2023/05/12 13:32:43;;;;;;;6.00;2.10;;;;;;;21.06;30.57;100414.55;134111;1298;22380;-67
2023/05/12 13:36:00;;;;;;;;;;;;;;;;;;;;;
2023/05/12 13:39:30;;;;;;;2.00;1.50;;;;;;;20.67;30.75;100412.45;134100;1304;22429;-69
2023/05/12 13:43:08;;;;;;;2.60;2.00;;;;;;;20.56;30.59;100415.48;134097;1305;22423;-68
2023/05/12 13:46:29;;;;;;;3.60;2.30;;;;;;;20.60;30.68;100414.56;134187;1299;22379;-69
2023/05/12 13:49:43;;;;;;;5.50;2.10;;;;;;;20.57;30.59;100417.08;134226;1298;22411;-68
2023/05/12 13:53:47;;;;;;;3.70;1.90;;;;;;;20.51;31.36;100421.30;134207;1298;22440;-68
2023/05/12 13:57:25;;;;;;;;;;;;;;;;;;;;;
2023/05/12 14:00:47;;;;;;;2.00;1.80;;;;;;;20.62;31.43;100422.29;134152;1298;22161;-68
2023/05/12 14:03:58;;;;;;;3.30;2.20;;;;;;;20.94;30.92;100417.41;134202;1298;22398;-69
2023/05/12 14:07:29;;;;;;;3.60;2.10;;;;;;;21.00;31.33;100416.03;134186;1298;22338;-68
2023/05/12 14:11:12;;;;;;;2.60;2.00;;;;;;;20.90;30.39;100419.45;134199;1297;23452;-68
2023/05/12 14:14:16;;;;;;;2.00;1.90;;;;;;;20.76;30.27;100412.11;134206;1298;22374;-69
2023/05/12 14:17:33;;;;;;;6.80;2.00;;;;;;;20.83;30.60;100408.31;134184;1298;22479;-67
2023/05/12 14:20:54;;;;;;;;;;;;;;;;;;;;;
2023/05/12 14:24:17;;;;;;;7.40;1.90;;;;;;;20.89;29.51;100414.42;134102;1304;22376;-70
2023/05/12 14:27:44;;;;;;;;;;;;;;;;;;;;;
2023/05/12 14:30:48;;;;;;;4.10;2.00;;;;;;;20.83;28.78;100416.36;134190;1305;22231;-68
2023/05/12 14:33:51;;;;;;;5.40;1.90;;;;;;;20.70;29.06;100424.02;134253;1294;22372;-67
2023/05/12 14:37:13;;;;;;;3.60;2.00;;;;;;;20.51;29.29;100418.16;134192;1298;22419;-67
2023/05/12 14:40:25;;;;;;;2.70;2.20;;;;;;;20.32;29.86;100419.05;134077;1298;22319;-73
2023/05/12 14:43:31;;;;;;;2.80;1.90;;;;;;;20.24;30.81;100418.91;134220;1298;23093;-68
2023/05/12 14:46:44;;;;;;;5.30;2.20;;;;;;;20.17;31.69;100423.66;134236;1298;22384;-69
2023/05/12 14:49:45;;;;;;;2.20;2.00;;;;;;;20.26;31.65;100428.45;134193;1299;22152;-69
2023/05/12 14:52:49;;;;;;;3.90;2.40;;;;;;;20.38;31.70;100424.94;134229;1298;22150;-73
2023/05/12 14:55:52;;;;;;;6.00;2.30;;;;;;;20.29;32.15;100425.16;134207;1297;22403;-67
2023/05/12 14:58:56;;;;;;;13.70;2.60;;;;;;;20.14;32.60;100426.88;134216;1298;22599;-70
2023/05/12 15:02:00;;;;;;;5.10;2.20;;;;;;;20.01;33.14;100424.02;134173;1298;23765;-70
2023/05/12 15:05:18;;;;;;;2.10;1.90;;;;;;;19.93;33.49;100426.52;134187;1297;22390;-70
2023/05/12 15:08:34;;;;;;;3.30;2.20;;;;;;;19.96;33.42;100429.78;134191;1298;22397;-69
2023/05/12 15:11:48;;;;;;;8.10;2.70;;;;;;;19.95;32.66;100431.23;134046;1298;22381;-69
2023/05/12 15:14:54;;;;;;;2.70;2.30;;;;;;;19.86;32.58;100425.94;134068;1299;22396;-70
2023/05/12 15:17:55;;;;;;;4.80;2.20;;;;;;;19.86;32.80;100424.85;134222;1298;22487;-69
2023/05/12 15:20:56;;;;;;;5.60;2.00;;;;;;;19.88;32.46;100429.86;134179;1301;22451;-69
2023/05/12 15:24:04;;;;;;;4.30;2.30;;;;;;;19.89;32.65;100423.76;134191;1298;22240;-69
2023/05/12 15:27:18;;;;;;;4.30;2.40;;;;;;;19.89;32.99;100425.11;134070;1298;23073;-72
2023/05/12 15:30:19;;;;;;;3.70;2.60;;;;;;;19.91;33.18;100427.38;134211;1297;22426;-70
2023/05/12 15:33:23;;;;;;;4.80;2.30;;;;;;;19.80;33.28;100425.73;134170;1298;22406;-69
2023/05/12 15:36:24;;;;;;;2.70;2.50;;;;;;;19.57;33.18;100431.09;134163;1298;22373;-70
2023/05/12 15:39:27;;;;;;;4.30;2.20;;;;;;;19.47;33.83;100427.96;134188;1298;23411;-69
2023/05/12 15:42:34;;;;;;;7.20;2.50;;;;;;;19.47;34.01;100431.49;134190;1298;22463;-70
2023/05/12 15:45:44;;;;;;;4.80;2.20;;;;;;;19.51;33.58;100436.77;134081;1297;22377;-69
2023/05/12 15:48:58;;;;;;;7.30;2.40;;;;;;;19.59;33.44;100440.81;134202;1298;22378;-69
2023/05/12 15:52:12;;;;;;;2.90;2.10;;;;;;;19.61;33.22;100434.95;134176;1298;23174;-69
2023/05/12 15:55:23;;;;;;;3.30;2.50;;;;;;;19.61;33.22;100430.31;134231;1298;22464;-69
2023/05/12 15:58:27;;;;;;;4.20;2.30;;;;;;;19.59;33.44;100437.63;134074;1298;22143;-69
2023/05/12 16:02:01;;;;;;;;;;;;;;;;;;;;;
2023/05/12 16:05:36;;;;;;;;;;;;;;;;;;;;;
2023/05/12 16:09:00;;;;;;;4.00;2.20;;;;;;;19.47;33.02;100432.95;134121;1305;22379;-69
2023/05/12 16:12:22;;;;;;;4.50;2.80;;;;;;;19.42;32.84;100436.61;134204;1302;22372;-69
2023/05/12 16:15:34;;;;;;;3.20;2.00;;;;;;;19.40;32.80;100437.38;133941;1304;22356;-70
2023/05/12 16:18:45;;;;;;;7.70;2.00;;;;;;;19.36;32.81;100438.39;134224;1305;23527;-69
2023/05/12 16:21:49;;;;;;;5.40;2.40;;;;;;;19.33;32.85;100443.02;134168;1302;22240;-68
2023/05/12 16:25:05;;;;;;;7.00;2.50;;;;;;;19.30;32.78;100442.99;134187;1297;22421;-69
2023/05/12 16:28:15;;;;;;;6.80;2.70;;;;;;;19.27;33.24;100438.75;134058;1305;23410;-68
2023/05/12 16:31:30;;;;;;;;;;;;;;;;;;;;;
2023/05/12 16:34:51;;;;;;;;;;;;;;;;;;;;;
2023/05/12 16:38:13;;;;;;;9.60;2.90;;;;;;;19.07;33.77;100454.28;134186;1299;22266;-73
2023/05/12 16:45:01;;;;;;;10.00;2.80;;;;;;;18.91;34.08;100452.08;134198;1298;22397;-70
2023/05/12 16:48:05;;;;;;;4.60;2.70;;;;;;;18.85;34.17;100458.84;134219;1305;22258;-68
2023/05/12 16:51:17;;;;;;;10.70;2.90;;;;;;;18.79;34.34;100463.95;134220;1305;22549;-70
2023/05/12 16:54:37;;;;;;;4.30;2.60;;;;;;;18.73;34.63;100465.82;134174;1302;22191;-71
2023/05/12 16:57:47;;;;;;;8.90;3.10;;;;;;;18.67;34.77;100469.18;134057;1298;22393;-69
2023/05/12 17:01:10;;;;;;;10.30;2.90;;;;;;;18.62;34.84;100466.46;134082;1301;22485;-70
2023/05/12 17:08:23;;;;;;;;;;;;;;;;;;;;;
2023/05/12 17:11:33;;;;;;;13.90;3.20;;;;;;;18.44;33.69;100471.13;134176;1297;23078;-70
2023/05/12 17:15:10;;;;;;;;;;;;;;;;;;;;;
2023/05/12 17:18:39;;;;;;;7.50;2.60;;;;;;;18.26;34.17;100478.64;134032;1298;22342;-68
2023/05/12 17:21:53;;;;;;;8.50;2.60;;;;;;;18.17;33.97;100478.23;134186;1305;22190;-69
2023/05/12 17:25:27;;;;;;;7.00;2.60;;;;;;;18.12;34.20;100483.77;134183;1302;22245;-75